Time;durP1;ratioP1;P1;durP2;ratioP2;P2;SDS_P1;SDS_P2;PMS_P1;PMS_P2;Temp;Humidity;BMP_temperature;BMP_pressure;BME280_temperature;BME280_humidity;BME280_pressure;Samples;Min_cycle;Max_cycle;Signal;HPM_P1;HPM_P2
2024/03/30 00:01:09;;;;;;;14.55;4.13;;;;;;;;;;5075297;28;20026;-78
2024/03/30 00:03:36;;;;;;;10.15;3.25;;;;;;;;;;5092668;28;20020;-79
2024/03/30 00:06:02;;;;;;;13.88;4.47;;;;;;;;;;5070959;28;20066;-80
2024/03/30 00:08:29;;;;;;;16.25;3.13;;;;;;;;;;5073244;28;20021;-79
2024/03/30 00:10:59;;;;;;;8.68;2.97;;;;;;;;;;5084633;28;20029;-80
2024/03/30 00:13:25;;;;;;;10.50;3.65;;;;;;;;;;5048905;28;20026;-79
2024/03/30 00:15:51;;;;;;;16.20;4.80;;;;;;;;;;5047881;28;20112;-79
2024/03/30 00:18:17;;;;;;;18.42;4.47;;;;;;;;;;5055410;28;20037;-80
2024/03/30 00:20:43;;;;;;;16.35;4.43;;;;;;;;;;5056246;28;20024;-80
2024/03/30 00:23:09;;;;;;;15.65;3.97;;;;;;;;;;5048738;28;20045;-80
2024/03/30 00:25:35;;;;;;;15.88;3.92;;;;;;;;;;5057364;28;20025;-80
2024/03/30 00:28:02;;;;;;;15.57;4.53;;;;;;;;;;5051043;28;20025;-80
2024/03/30 00:30:31;;;;;;;13.52;4.25;;;;;;;;;;5048879;28;20036;-80
2024/03/30 00:32:57;;;;;;;13.45;3.95;;;;;;;;;;5056100;28;20030;-80
2024/03/30 00:35:23;;;;;;;10.88;3.70;;;;;;;;;;5047683;28;20076;-79
2024/03/30 00:37:53;;;;;;;12.27;3.47;;;;;;;;;;5049863;28;20522;-79
2024/03/30 00:40:19;;;;;;;20.23;5.40;;;;;;;;;;5054113;28;20071;-78
2024/03/30 00:42:46;;;;;;;12.15;3.47;;;;;;;;;;5047282;28;20033;-79
2024/03/30 00:45:13;;;;;;;17.65;4.53;;;;;;;;;;5049902;28;20033;-80
2024/03/30 00:47:39;;;;;;;16.80;4.78;;;;;;;;;;5054668;28;20077;-78
2024/03/30 00:50:05;;;;;;;12.93;3.45;;;;;;;;;;5064135;28;20009;-77
2024/03/30 00:52:32;;;;;;;12.60;3.63;;;;;;;;;;5061527;28;20013;-79
2024/03/30 00:54:58;;;;;;;15.95;4.00;;;;;;;;;;5052383;28;20033;-80
2024/03/30 00:57:24;;;;;;;11.65;3.72;;;;;;;;;;5046011;28;20025;-81
2024/03/30 00:59:50;;;;;;;15.13;4.25;;;;;;;;;;5048659;28;20075;-80
2024/03/30 01:02:16;;;;;;;12.15;3.83;;;;;;;;;;5053058;28;20094;-79
2024/03/30 01:04:42;;;;;;;15.15;5.00;;;;;;;;;;5063184;28;20024;-80
2024/03/30 01:07:09;;;;;;;11.32;3.00;;;;;;;;;;5045935;28;20029;-79
2024/03/30 01:09:35;;;;;;;9.35;3.65;;;;;;;;;;5046420;28;20060;-79
2024/03/30 01:12:02;;;;;;;11.00;3.63;;;;;;;;;;5063099;28;20029;-79
2024/03/30 01:14:30;;;;;;;6.57;2.40;;;;;;;;;;5052848;28;20021;-79
2024/03/30 01:16:56;;;;;;;10.77;2.88;;;;;;;;;;5053068;28;20116;-80
2024/03/30 01:19:22;;;;;;;13.10;3.05;;;;;;;;;;5049370;28;20133;-80
2024/03/30 01:21:49;;;;;;;9.07;2.67;;;;;;;;;;5056867;28;20036;-79
2024/03/30 01:24:15;;;;;;;7.85;2.58;;;;;;;;;;5054055;28;20037;-79
2024/03/30 01:26:45;;;;;;;12.32;3.13;;;;;;;;;;5047410;28;20392;-78
2024/03/30 01:29:12;;;;;;;7.00;2.92;;;;;;;;;;5047491;28;20021;-79
2024/03/30 01:31:38;;;;;;;9.07;2.80;;;;;;;;;;5052658;28;20017;-79
2024/03/30 01:34:04;;;;;;;8.95;2.88;;;;;;;;;;5047125;28;20068;-79
2024/03/30 01:36:30;;;;;;;11.13;2.70;;;;;;;;;;5057396;28;20017;-78
2024/03/30 01:38:56;;;;;;;7.38;2.15;;;;;;;;;;5058843;28;20056;-80
2024/03/30 01:41:22;;;;;;;13.20;3.08;;;;;;;;;;5045322;28;20033;-79
2024/03/30 01:43:48;;;;;;;10.07;2.97;;;;;;;;;;5045415;28;20025;-80
2024/03/30 01:46:15;;;;;;;10.23;3.17;;;;;;;;;;5046032;28;20021;-78
2024/03/30 01:48:41;;;;;;;11.38;2.60;;;;;;;;;;5047326;28;20039;-80
2024/03/30 01:51:07;;;;;;;14.02;3.67;;;;;;;;;;5046213;28;20041;-78
2024/03/30 01:53:34;;;;;;;10.02;2.88;;;;;;;;;;5053438;28;20010;-79
2024/03/30 01:56:00;;;;;;;13.45;2.97;;;;;;;;;;5049074;28;20085;-79
2024/03/30 01:58:27;;;;;;;9.15;3.40;;;;;;;;;;5048104;28;20025;-78
2024/03/30 02:00:54;;;;;;;11.38;2.83;;;;;;;;;;5046128;28;20045;-80
2024/03/30 02:03:22;;;;;;;14.88;4.43;;;;;;;;;;5046023;28;20051;-79
2024/03/30 02:05:48;;;;;;;11.40;3.22;;;;;;;;;;5058914;28;20036;-79
2024/03/30 02:08:15;;;;;;;12.05;3.67;;;;;;;;;;5061939;28;20029;-80
2024/03/30 02:10:46;;;;;;;10.65;2.40;;;;;;;;;;5063409;28;20041;-79
2024/03/30 02:13:12;;;;;;;10.43;2.47;;;;;;;;;;5053561;28;20045;-80
2024/03/30 02:15:38;;;;;;;8.98;2.40;;;;;;;;;;5049498;28;20037;-80
2024/03/30 02:18:05;;;;;;;6.22;1.98;;;;;;;;;;5053289;28;20033;-80
2024/03/30 02:20:31;;;;;;;5.05;2.10;;;;;;;;;;5054240;28;20105;-77
2024/03/30 02:22:57;;;;;;;7.18;2.25;;;;;;;;;;5056630;28;20028;-80
2024/03/30 02:25:23;;;;;;;7.03;1.88;;;;;;;;;;5056194;28;20465;-79
2024/03/30 02:27:50;;;;;;;8.32;2.33;;;;;;;;;;5053736;28;20069;-80
2024/03/30 02:30:22;;;;;;;9.02;2.72;;;;;;;;;;5051495;28;20053;-79
2024/03/30 02:32:48;;;;;;;6.13;2.50;;;;;;;;;;5055688;28;20053;-78
2024/03/30 02:35:14;;;;;;;7.00;2.13;;;;;;;;;;5052332;28;20033;-78
2024/03/30 02:37:40;;;;;;;5.70;1.98;;;;;;;;;;5059404;28;20457;-79
2024/03/30 02:40:07;;;;;;;6.22;2.53;;;;;;;;;;5059594;28;20036;-79
2024/03/30 02:42:34;;;;;;;5.93;2.33;;;;;;;;;;5054414;28;20021;-78
2024/03/30 02:45:00;;;;;;;3.92;1.17;;;;;;;;;;5056478;28;20017;-79
2024/03/30 02:47:26;;;;;;;4.25;1.27;;;;;;;;;;5058126;28;20041;-80
2024/03/30 02:49:55;;;;;;;4.45;1.50;;;;;;;;;;5058221;28;20116;-80
2024/03/30 02:52:21;;;;;;;5.80;2.00;;;;;;;;;;5042483;28;20017;-79
2024/03/30 02:54:48;;;;;;;3.25;1.20;;;;;;;;;;5040152;28;20022;-80
2024/03/30 03:00:01;;;;;;;7.60;2.55;;;;;;;;;;5038089;28;20566;-79
2024/03/30 03:02:27;;;;;;;5.80;1.75;;;;;;;;;;5049807;28;20029;-79
2024/03/30 03:04:53;;;;;;;5.63;1.67;;;;;;;;;;5057171;28;20514;-79
2024/03/30 03:07:19;;;;;;;2.78;1.42;;;;;;;;;;5042604;28;20083;-79
2024/03/30 03:09:45;;;;;;;4.05;1.73;;;;;;;;;;5052179;28;20104;-79
2024/03/30 03:12:11;;;;;;;2.50;1.17;;;;;;;;;;5054880;28;20071;-79
2024/03/30 03:14:37;;;;;;;4.47;1.80;;;;;;;;;;5048697;28;20017;-80
2024/03/30 03:17:03;;;;;;;5.95;1.70;;;;;;;;;;5047686;28;20022;-80
2024/03/30 03:19:29;;;;;;;7.72;2.60;;;;;;;;;;5045683;28;20033;-79
2024/03/30 03:21:55;;;;;;;5.72;1.40;;;;;;;;;;5044296;28;20045;-79
2024/03/30 03:24:22;;;;;;;6.40;2.30;;;;;;;;;;5043251;28;20148;-78
2024/03/30 03:26:48;;;;;;;5.18;1.30;;;;;;;;;;5042208;28;20099;-80
2024/03/30 03:29:14;;;;;;;2.92;0.95;;;;;;;;;;5051361;28;20041;-80
2024/03/30 03:31:40;;;;;;;2.65;1.38;;;;;;;;;;5059977;28;20037;-81
2024/03/30 03:34:06;;;;;;;5.97;1.70;;;;;;;;;;5043905;28;20066;-80
2024/03/30 03:36:32;;;;;;;3.03;1.45;;;;;;;;;;5044994;28;20021;-79
2024/03/30 03:38:58;;;;;;;7.20;1.75;;;;;;;;;;5047734;28;20040;-79
2024/03/30 03:41:25;;;;;;;9.65;2.53;;;;;;;;;;5048278;28;20077;-80
2024/03/30 03:43:51;;;;;;;6.47;1.95;;;;;;;;;;5051660;28;20050;-79
2024/03/30 03:46:17;;;;;;;7.30;2.50;;;;;;;;;;5042516;28;20049;-79
2024/03/30 03:48:43;;;;;;;6.90;2.05;;;;;;;;;;5045125;28;20043;-79
2024/03/30 03:51:09;;;;;;;6.63;1.50;;;;;;;;;;5047612;28;20030;-80
2024/03/30 03:53:36;;;;;;;6.22;1.65;;;;;;;;;;5046203;28;20025;-79
2024/03/30 03:56:02;;;;;;;5.47;1.65;;;;;;;;;;5047750;28;20032;-79
2024/03/30 03:58:28;;;;;;;4.03;1.52;;;;;;;;;;5047287;28;20364;-79
2024/03/30 04:00:54;;;;;;;5.70;2.10;;;;;;;;;;5047283;28;20058;-79
2024/03/30 04:03:20;;;;;;;2.60;1.50;;;;;;;;;;5052782;28;20032;-79
2024/03/30 04:05:46;;;;;;;3.05;1.08;;;;;;;;;;5052522;28;20088;-80
2024/03/30 04:08:12;;;;;;;2.33;1.42;;;;;;;;;;5055760;28;20089;-80
2024/03/30 04:10:38;;;;;;;3.42;1.48;;;;;;;;;;5052033;28;20022;-80
2024/03/30 04:13:04;;;;;;;4.57;1.60;;;;;;;;;;5045012;28;20097;-79
2024/03/30 04:15:33;;;;;;;2.20;0.90;;;;;;;;;;5046069;28;20030;-79
2024/03/30 04:17:59;;;;;;;4.22;1.50;;;;;;;;;;5050342;28;20531;-80
2024/03/30 04:20:25;;;;;;;3.78;1.05;;;;;;;;;;5051589;28;20117;-80
2024/03/30 04:22:52;;;;;;;4.20;1.30;;;;;;;;;;5056402;28;20025;-79
2024/03/30 04:25:18;;;;;;;3.90;1.02;;;;;;;;;;5054268;28;20021;-78
2024/03/30 04:27:44;;;;;;;3.22;1.05;;;;;;;;;;5057039;28;20030;-79
2024/03/30 04:30:11;;;;;;;3.42;1.15;;;;;;;;;;5047678;28;20569;-79
2024/03/30 04:32:37;;;;;;;2.83;0.90;;;;;;;;;;5052783;28;20040;-79
2024/03/30 04:35:03;;;;;;;4.82;1.35;;;;;;;;;;5048731;28;20052;-80
2024/03/30 04:37:29;;;;;;;2.40;1.00;;;;;;;;;;5058160;28;20112;-80
2024/03/30 04:39:56;;;;;;;1.70;0.70;;;;;;;;;;5045466;28;20128;-80
2024/03/30 04:42:22;;;;;;;2.70;1.42;;;;;;;;;;5054062;28;20025;-80
2024/03/30 04:44:48;;;;;;;2.72;0.90;;;;;;;;;;5046890;28;20060;-81
2024/03/30 04:47:15;;;;;;;2.25;1.08;;;;;;;;;;5053884;28;20029;-80
2024/03/30 04:49:41;;;;;;;6.18;2.05;;;;;;;;;;5055281;28;20040;-79
2024/03/30 04:52:07;;;;;;;2.40;0.77;;;;;;;;;;5047680;28;20021;-79
2024/03/30 04:54:33;;;;;;;2.70;0.85;;;;;;;;;;5044079;28;20381;-76
2024/03/30 04:57:00;;;;;;;2.78;0.80;;;;;;;;;;5040929;28;20009;-78
2024/03/30 04:59:26;;;;;;;5.05;1.92;;;;;;;;;;5040457;28;20022;-78
2024/03/30 05:01:52;;;;;;;4.65;1.08;;;;;;;;;;5036890;28;20021;-78
2024/03/30 05:04:18;;;;;;;1.83;0.57;;;;;;;;;;5046778;28;20047;-78
2024/03/30 05:06:45;;;;;;;3.28;1.00;;;;;;;;;;5046850;28;20383;-77
2024/03/30 05:09:11;;;;;;;3.72;1.27;;;;;;;;;;5041011;28;20040;-77
2024/03/30 05:11:37;;;;;;;3.40;1.30;;;;;;;;;;5034928;28;20025;-78
2024/03/30 05:14:03;;;;;;;3.03;0.95;;;;;;;;;;5035008;28;20069;-77
2024/03/30 05:16:29;;;;;;;1.13;0.70;;;;;;;;;;5034516;28;20113;-77
2024/03/30 05:18:56;;;;;;;2.65;1.00;;;;;;;;;;5038480;28;20034;-77
2024/03/30 05:21:25;;;;;;;1.02;0.45;;;;;;;;;;5037728;28;20034;-76
2024/03/30 05:23:51;;;;;;;2.00;0.95;;;;;;;;;;5040662;28;20033;-77
2024/03/30 05:26:17;;;;;;;9.82;1.50;;;;;;;;;;5048172;28;20029;-78
2024/03/30 05:28:43;;;;;;;3.22;1.30;;;;;;;;;;5061158;28;20025;-78
2024/03/30 05:31:19;;;;;;;6.15;1.75;;;;;;;;;;5046975;23;20053;-78
2024/03/30 05:33:45;;;;;;;5.13;1.48;;;;;;;;;;5041214;28;20029;-77
2024/03/30 05:36:11;;;;;;;8.32;2.00;;;;;;;;;;5040530;28;20563;-78
2024/03/30 05:38:37;;;;;;;10.43;1.90;;;;;;;;;;5041615;28;20112;-78
2024/03/30 05:41:04;;;;;;;10.38;2.50;;;;;;;;;;5054305;28;20052;-80
2024/03/30 05:43:30;;;;;;;8.38;3.22;;;;;;;;;;5060500;28;20070;-77
2024/03/30 05:45:57;;;;;;;5.40;1.50;;;;;;;;;;5056609;28;20059;-77
2024/03/30 05:48:23;;;;;;;5.70;1.55;;;;;;;;;;5064829;28;20422;-78
2024/03/30 05:50:50;;;;;;;7.93;2.10;;;;;;;;;;5065238;28;20407;-79
2024/03/30 05:53:16;;;;;;;9.27;2.30;;;;;;;;;;5051592;28;20044;-80
2024/03/30 05:55:42;;;;;;;9.02;2.03;;;;;;;;;;5069980;28;20031;-77
2024/03/30 05:58:14;;;;;;;8.93;2.65;;;;;;;;;;5063439;28;20029;-78
2024/03/30 06:00:41;;;;;;;10.75;2.47;;;;;;;;;;5064150;28;20021;-79
2024/03/30 06:03:07;;;;;;;7.55;2.00;;;;;;;;;;5059510;28;20300;-79
2024/03/30 06:05:33;;;;;;;8.63;2.08;;;;;;;;;;5068688;28;20025;-78
2024/03/30 06:08:00;;;;;;;11.50;2.25;;;;;;;;;;5069673;28;20021;-78
2024/03/30 06:10:26;;;;;;;21.15;4.03;;;;;;;;;;5075593;28;20129;-79
2024/03/30 06:12:52;;;;;;;13.07;3.60;;;;;;;;;;5071073;28;20036;-82
2024/03/30 06:15:18;;;;;;;12.25;2.47;;;;;;;;;;5065146;28;20031;-79
2024/03/30 06:17:45;;;;;;;10.52;2.50;;;;;;;;;;5050886;28;20052;-79
2024/03/30 06:20:11;;;;;;;8.68;2.15;;;;;;;;;;5060364;28;20108;-76
2024/03/30 06:22:37;;;;;;;13.00;3.10;;;;;;;;;;5059280;28;20021;-77
2024/03/30 06:25:04;;;;;;;10.25;3.13;;;;;;;;;;5057426;28;20021;-77
2024/03/30 06:27:30;;;;;;;8.80;2.30;;;;;;;;;;5057565;28;20171;-78
2024/03/30 06:29:56;;;;;;;9.50;2.78;;;;;;;;;;5053414;28;20217;-79
2024/03/30 06:32:23;;;;;;;6.85;2.60;;;;;;;;;;5055801;28;20471;-78
2024/03/30 06:34:50;;;;;;;6.18;2.33;;;;;;;;;;5055784;28;20028;-78
2024/03/30 06:37:16;;;;;;;5.38;2.05;;;;;;;;;;5055018;28;20104;-78
2024/03/30 06:45:12;;;;;;;9.95;2.42;;;;;;;;;;5055892;28;20032;-78
2024/03/30 06:47:38;;;;;;;5.43;2.08;;;;;;;;;;5060768;28;20021;-77
2024/03/30 06:50:05;;;;;;;6.35;1.92;;;;;;;;;;5055839;28;20024;-79
2024/03/30 06:52:31;;;;;;;8.35;1.98;;;;;;;;;;5056535;28;20025;-79
2024/03/30 06:54:57;;;;;;;5.35;1.60;;;;;;;;;;5056262;28;20071;-80
2024/03/30 06:57:23;;;;;;;5.65;2.03;;;;;;;;;;5061291;28;20048;-79
2024/03/30 06:59:49;;;;;;;11.40;2.67;;;;;;;;;;5057316;28;20055;-78
2024/03/30 07:02:17;;;;;;;13.93;3.15;;;;;;;;;;5059722;28;20472;-78
2024/03/30 07:04:43;;;;;;;17.80;3.25;;;;;;;;;;5058405;28;20016;-78
2024/03/30 07:07:09;;;;;;;15.32;3.30;;;;;;;;;;5058935;28;20021;-78
2024/03/30 07:09:35;;;;;;;18.83;4.55;;;;;;;;;;5058570;28;20017;-79
2024/03/30 07:12:01;;;;;;;22.33;4.50;;;;;;;;;;5062624;28;20048;-78
2024/03/30 07:14:27;;;;;;;24.05;4.35;;;;;;;;;;5048355;28;20372;-78
2024/03/30 07:16:55;;;;;;;18.55;4.45;;;;;;;;;;5054411;28;20021;-79
2024/03/30 07:19:21;;;;;;;18.90;3.72;;;;;;;;;;5055111;28;20103;-79
2024/03/30 07:21:47;;;;;;;23.33;5.18;;;;;;;;;;5063921;28;20028;-79
2024/03/30 07:24:13;;;;;;;18.17;3.63;;;;;;;;;;5067680;28;20025;-78
2024/03/30 07:26:39;;;;;;;21.92;4.30;;;;;;;;;;5042194;28;20030;-77
2024/03/30 07:29:06;;;;;;;19.40;4.43;;;;;;;;;;5057553;28;20386;-79
2024/03/30 07:31:32;;;;;;;15.25;3.90;;;;;;;;;;5058810;28;20044;-77
2024/03/30 07:33:58;;;;;;;13.38;3.45;;;;;;;;;;5059045;28;20017;-78
2024/03/30 07:36:24;;;;;;;18.58;3.13;;;;;;;;;;5059517;28;20083;-78
2024/03/30 07:38:50;;;;;;;11.77;2.60;;;;;;;;;;5054736;28;20380;-79
2024/03/30 07:41:16;;;;;;;12.38;3.17;;;;;;;;;;5065874;28;20467;-78
2024/03/30 07:43:43;;;;;;;20.42;4.25;;;;;;;;;;5058264;28;20124;-79
2024/03/30 07:46:09;;;;;;;21.08;3.33;;;;;;;;;;5058775;28;20446;-79
2024/03/30 07:48:35;;;;;;;9.30;2.45;;;;;;;;;;5058951;28;20543;-80
2024/03/30 07:51:01;;;;;;;8.27;2.58;;;;;;;;;;5062173;28;20037;-79
2024/03/30 07:53:27;;;;;;;8.77;2.72;;;;;;;;;;5058742;28;20025;-79
2024/03/30 07:55:54;;;;;;;11.40;2.88;;;;;;;;;;5059268;28;20059;-78
2024/03/30 07:58:20;;;;;;;17.73;3.90;;;;;;;;;;5059420;28;20029;-78
2024/03/30 08:00:47;;;;;;;10.30;2.80;;;;;;;;;;5070025;28;20490;-78
2024/03/30 08:03:14;;;;;;;14.85;2.85;;;;;;;;;;5060051;28;20043;-79
2024/03/30 08:05:40;;;;;;;12.02;2.83;;;;;;;;;;5065057;28;20063;-79
2024/03/30 08:08:06;;;;;;;11.73;2.60;;;;;;;;;;5064835;28;20023;-80
2024/03/30 08:10:32;;;;;;;14.35;2.92;;;;;;;;;;5047695;28;20088;-78
2024/03/30 08:12:59;;;;;;;12.57;2.75;;;;;;;;;;5057169;28;20048;-80
2024/03/30 08:15:25;;;;;;;9.25;2.83;;;;;;;;;;5062535;28;20108;-78
2024/03/30 08:17:51;;;;;;;11.68;3.00;;;;;;;;;;5055528;28;20111;-78
2024/03/30 08:20:17;;;;;;;8.45;2.72;;;;;;;;;;5067908;28;20054;-80
2024/03/30 08:22:46;;;;;;;10.98;2.95;;;;;;;;;;5074525;28;20021;-78
2024/03/30 08:25:12;;;;;;;7.22;2.40;;;;;;;;;;5069550;28;20017;-79
2024/03/30 08:27:38;;;;;;;11.25;2.75;;;;;;;;;;5072848;28;20023;-80
2024/03/30 08:30:05;;;;;;;13.60;2.55;;;;;;;;;;5062537;28;20116;-79
2024/03/30 08:32:31;;;;;;;9.57;2.20;;;;;;;;;;5056380;28;20063;-79
2024/03/30 08:34:57;;;;;;;10.02;2.58;;;;;;;;;;5063083;28;20464;-79
2024/03/30 08:37:23;;;;;;;16.38;3.85;;;;;;;;;;5071990;28;20100;-78
2024/03/30 08:39:49;;;;;;;12.60;3.20;;;;;;;;;;5061363;28;20070;-79
2024/03/30 08:42:16;;;;;;;12.88;2.42;;;;;;;;;;5063655;28;20081;-77
2024/03/30 08:44:42;;;;;;;11.90;2.53;;;;;;;;;;5060154;28;20021;-78
2024/03/30 08:47:08;;;;;;;16.70;3.72;;;;;;;;;;5078608;28;20084;-79
2024/03/30 08:49:35;;;;;;;12.95;3.83;;;;;;;;;;5059825;28;20077;-79
2024/03/30 08:52:01;;;;;;;22.02;4.80;;;;;;;;;;5058974;28;20368;-79
2024/03/30 08:54:27;;;;;;;21.70;4.07;;;;;;;;;;5061741;28;20028;-79
2024/03/30 08:56:53;;;;;;;25.23;4.03;;;;;;;;;;5063736;28;20096;-78
2024/03/30 08:59:20;;;;;;;23.67;5.13;;;;;;;;;;5072969;28;20031;-80
2024/03/30 09:01:47;;;;;;;21.55;4.60;;;;;;;;;;5065654;28;20029;-79
2024/03/30 09:04:13;;;;;;;17.05;4.05;;;;;;;;;;5043318;28;20025;-79
2024/03/30 09:06:39;;;;;;;27.75;5.43;;;;;;;;;;5070390;28;20009;-81
2024/03/30 09:09:05;;;;;;;45.85;6.40;;;;;;;;;;5075815;28;20017;-77
2024/03/30 09:11:32;;;;;;;33.83;5.05;;;;;;;;;;5082446;28;20048;-80
2024/03/30 09:13:58;;;;;;;26.77;5.05;;;;;;;;;;5076760;28;20459;-79
2024/03/30 09:16:24;;;;;;;19.70;4.38;;;;;;;;;;5077266;28;20021;-80
2024/03/30 09:18:50;;;;;;;18.73;3.88;;;;;;;;;;5055479;28;20128;-78
2024/03/30 09:21:16;;;;;;;20.25;3.70;;;;;;;;;;5063219;28;20039;-78
2024/03/30 09:23:43;;;;;;;53.65;9.43;;;;;;;;;;5065217;28;20509;-79
2024/03/30 09:26:09;;;;;;;43.60;6.75;;;;;;;;;;5049320;28;20021;-79
2024/03/30 09:28:35;;;;;;;32.38;7.57;;;;;;;;;;5038531;28;20025;-79
2024/03/30 09:31:02;;;;;;;29.67;5.65;;;;;;;;;;5044556;28;20086;-79
2024/03/30 09:33:28;;;;;;;28.80;7.63;;;;;;;;;;5045937;28;20025;-80
2024/03/30 09:35:55;;;;;;;23.90;5.50;;;;;;;;;;5063415;28;20025;-79
2024/03/30 09:38:21;;;;;;;16.55;3.67;;;;;;;;;;5056594;28;20048;-79
2024/03/30 09:40:55;;;;;;;15.07;3.13;;;;;;;;;;5059938;28;20029;-78
2024/03/30 09:43:22;;;;;;;15.10;3.28;;;;;;;;;;5050079;28;20052;-78
2024/03/30 09:45:49;;;;;;;8.00;1.88;;;;;;;;;;5057592;28;20036;-79
2024/03/30 09:48:16;;;;;;;10.63;2.88;;;;;;;;;;5075419;28;20025;-79
2024/03/30 09:50:42;;;;;;;11.20;3.00;;;;;;;;;;5064180;28;20134;-80
2024/03/30 09:53:09;;;;;;;6.63;2.40;;;;;;;;;;5065833;28;20441;-79
2024/03/30 09:55:36;;;;;;;14.80;3.70;;;;;;;;;;5062310;28;20024;-80
2024/03/30 09:58:02;;;;;;;13.73;3.90;;;;;;;;;;5070531;28;20021;-79
2024/03/30 10:00:28;;;;;;;16.98;3.53;;;;;;;;;;5060652;28;20049;-79
2024/03/30 10:02:55;;;;;;;12.02;3.50;;;;;;;;;;5059070;28;20029;-79
2024/03/30 10:05:21;;;;;;;11.90;3.97;;;;;;;;;;5059052;28;20499;-78
2024/03/30 10:07:47;;;;;;;15.93;4.13;;;;;;;;;;5059091;28;20109;-79
2024/03/30 10:10:16;;;;;;;15.35;3.55;;;;;;;;;;5056746;28;20374;-79
2024/03/30 10:12:50;;;;;;;15.43;4.10;;;;;;;;;;5057372;28;20463;-79
2024/03/30 10:15:19;;;;;;;12.60;2.47;;;;;;;;;;5057631;28;20024;-80
2024/03/30 10:17:45;;;;;;;12.40;2.80;;;;;;;;;;5057651;28;20200;-78
2024/03/30 10:20:11;;;;;;;13.20;2.33;;;;;;;;;;5064395;28;20379;-79
2024/03/30 10:22:37;;;;;;;16.90;3.58;;;;;;;;;;5074435;28;20108;-79
2024/03/30 10:25:04;;;;;;;15.90;4.55;;;;;;;;;;5059034;28;20027;-79
2024/03/30 10:27:30;;;;;;;10.18;2.80;;;;;;;;;;5062542;28;20012;-78
2024/03/30 10:29:56;;;;;;;10.50;2.58;;;;;;;;;;5069801;28;20040;-79
2024/03/30 10:32:23;;;;;;;10.30;2.67;;;;;;;;;;5062633;28;20027;-79
2024/03/30 10:34:49;;;;;;;8.88;2.63;;;;;;;;;;5064333;28;20022;-80
2024/03/30 10:37:15;;;;;;;11.23;2.65;;;;;;;;;;5044236;28;20436;-78
2024/03/30 10:39:41;;;;;;;21.10;4.63;;;;;;;;;;5062469;28;20534;-79
2024/03/30 10:42:10;;;;;;;16.92;3.38;;;;;;;;;;5061843;28;20111;-79
2024/03/30 10:44:36;;;;;;;16.55;3.78;;;;;;;;;;5065237;28;20028;-80
2024/03/30 10:47:03;;;;;;;29.73;5.20;;;;;;;;;;5078958;28;20028;-79
2024/03/30 10:49:29;;;;;;;17.52;4.10;;;;;;;;;;5073183;28;20049;-79
2024/03/30 10:51:55;;;;;;;16.98;3.78;;;;;;;;;;5092269;28;20028;-82
2024/03/30 10:54:22;;;;;;;17.83;4.03;;;;;;;;;;5093690;28;20032;-78
2024/03/30 10:56:52;;;;;;;15.05;3.83;;;;;;;;;;5091792;28;20047;-80
2024/03/30 10:59:18;;;;;;;19.10;4.35;;;;;;;;;;5079471;28;20072;-79
2024/03/30 11:01:48;;;;;;;9.35;2.88;;;;;;;;;;5043063;28;20083;-78
2024/03/30 11:04:18;;;;;;;12.48;3.47;;;;;;;;;;5041745;28;20022;-78
2024/03/30 11:06:45;;;;;;;10.38;2.85;;;;;;;;;;5057038;28;20025;-80
2024/03/30 11:09:12;;;;;;;8.73;2.63;;;;;;;;;;5059079;28;20028;-79
2024/03/30 11:11:39;;;;;;;9.10;2.30;;;;;;;;;;5063780;28;20025;-79
2024/03/30 11:14:05;;;;;;;9.40;2.05;;;;;;;;;;5066490;28;20024;-79
2024/03/30 11:16:37;;;;;;;11.68;3.70;;;;;;;;;;5077603;28;20025;-80
2024/03/30 11:19:09;;;;;;;12.43;2.65;;;;;;;;;;5076650;28;20491;-79
2024/03/30 11:21:40;;;;;;;15.77;3.40;;;;;;;;;;5057856;28;20033;-80
2024/03/30 11:24:08;;;;;;;14.73;3.35;;;;;;;;;;5057847;28;20021;-80
2024/03/30 11:26:37;;;;;;;10.80;2.92;;;;;;;;;;5057777;28;20060;-77
2024/03/30 11:29:25;;;;;;;14.40;3.30;;;;;;;;;;5057768;28;20075;-78
2024/03/30 11:31:54;;;;;;;14.43;3.15;;;;;;;;;;5064944;28;20055;-79
2024/03/30 11:34:30;;;;;;;16.13;3.42;;;;;;;;;;5067354;28;20025;-79
2024/03/30 11:37:04;;;;;;;16.23;4.03;;;;;;;;;;5057925;28;20112;-78
2024/03/30 11:39:51;;;;;;;7.97;2.85;;;;;;;;;;5071783;28;20032;-80
2024/03/30 11:42:19;;;;;;;13.65;3.90;;;;;;;;;;5056587;28;20116;-79
2024/03/30 11:44:46;;;;;;;12.80;3.50;;;;;;;;;;5076740;28;20076;-80
2024/03/30 11:47:13;;;;;;;13.85;3.38;;;;;;;;;;5076892;28;20020;-82
2024/03/30 11:49:40;;;;;;;10.75;2.53;;;;;;;;;;5081224;28;20033;-80
2024/03/30 11:52:11;;;;;;;7.35;2.50;;;;;;;;;;5070460;28;20574;-80
2024/03/30 11:54:37;;;;;;;12.40;3.07;;;;;;;;;;5056605;28;20091;-79
2024/03/30 11:57:04;;;;;;;10.90;3.25;;;;;;;;;;5084523;28;20260;-80
2024/03/30 11:59:38;;;;;;;8.65;2.40;;;;;;;;;;5060343;28;20029;-79
2024/03/30 12:02:06;;;;;;;5.70;2.00;;;;;;;;;;5040848;28;20570;-79
2024/03/30 12:04:34;;;;;;;11.02;2.10;;;;;;;;;;5037691;28;20101;-79
2024/03/30 12:07:00;;;;;;;18.95;4.93;;;;;;;;;;5044987;28;20098;-78
2024/03/30 12:09:30;;;;;;;17.65;4.03;;;;;;;;;;5062483;28;20029;-79
2024/03/30 12:12:25;;;;;;;18.73;3.47;;;;;;;;;;5063743;28;20021;-79
2024/03/30 12:14:58;;;;;;;16.58;3.35;;;;;;;;;;5047916;28;20369;-77
2024/03/30 12:17:24;;;;;;;15.85;4.50;;;;;;;;;;5061678;28;20045;-80
2024/03/30 12:19:51;;;;;;;10.30;3.22;;;;;;;;;;5076883;28;20055;-79
2024/03/30 12:22:21;;;;;;;7.25;2.38;;;;;;;;;;5082137;28;20021;-78
2024/03/30 12:24:49;;;;;;;11.45;2.88;;;;;;;;;;5082002;28;20103;-78
2024/03/30 12:27:15;;;;;;;21.95;4.63;;;;;;;;;;5067310;28;20017;-79
2024/03/30 12:29:41;;;;;;;25.15;5.20;;;;;;;;;;5082105;28;20024;-79
2024/03/30 12:32:08;;;;;;;15.35;4.50;;;;;;;;;;5061068;28;20403;-78
2024/03/30 12:34:34;;;;;;;13.30;2.90;;;;;;;;;;5073523;28;20082;-79
2024/03/30 12:37:01;;;;;;;11.90;3.80;;;;;;;;;;5058836;28;20025;-78
2024/03/30 12:39:27;;;;;;;16.73;4.47;;;;;;;;;;5050203;28;20029;-79
2024/03/30 12:41:54;;;;;;;12.68;3.50;;;;;;;;;;5060046;28;20028;-79
2024/03/30 12:44:20;;;;;;;11.15;2.67;;;;;;;;;;5060642;28;20081;-78
2024/03/30 12:46:46;;;;;;;11.00;2.72;;;;;;;;;;5060569;28;20025;-78
2024/03/30 12:49:12;;;;;;;10.82;2.65;;;;;;;;;;5062183;28;20025;-79
2024/03/30 12:51:38;;;;;;;13.43;3.47;;;;;;;;;;5084602;28;20506;-79
2024/03/30 12:54:06;;;;;;;16.73;3.83;;;;;;;;;;5083425;28;20601;-79
2024/03/30 12:56:33;;;;;;;15.60;3.17;;;;;;;;;;5079917;28;20029;-77
2024/03/30 12:58:59;;;;;;;11.57;3.22;;;;;;;;;;5064329;28;20029;-78
2024/03/30 13:01:26;;;;;;;11.07;3.03;;;;;;;;;;5067125;28;20025;-79
2024/03/30 13:03:52;;;;;;;11.93;3.53;;;;;;;;;;5076108;28;20024;-78
2024/03/30 13:06:19;;;;;;;13.35;3.22;;;;;;;;;;5072463;28;20021;-77
2024/03/30 13:08:50;;;;;;;11.73;3.40;;;;;;;;;;5059712;28;20025;-78
2024/03/30 13:11:16;;;;;;;13.60;3.47;;;;;;;;;;5076620;28;20016;-80
2024/03/30 13:13:42;;;;;;;11.15;3.30;;;;;;;;;;5059392;28;20028;-77
2024/03/30 13:16:08;;;;;;;13.82;2.90;;;;;;;;;;5060975;28;20025;-77
2024/03/30 13:18:38;;;;;;;19.23;4.75;;;;;;;;;;5076293;28;20024;-80
2024/03/30 13:21:11;;;;;;;16.35;3.85;;;;;;;;;;5063191;28;20053;-79
2024/03/30 13:23:40;;;;;;;14.57;3.47;;;;;;;;;;5065434;28;20068;-77
2024/03/30 13:26:08;;;;;;;12.23;3.42;;;;;;;;;;5059524;28;20029;-78
2024/03/30 13:28:34;;;;;;;35.72;6.40;;;;;;;;;;5071702;28;20025;-78
2024/03/30 13:31:00;;;;;;;25.73;6.22;;;;;;;;;;5067277;28;20033;-77
2024/03/30 13:33:26;;;;;;;18.65;4.90;;;;;;;;;;5046715;28;20031;-78
2024/03/30 13:35:52;;;;;;;19.25;5.18;;;;;;;;;;5065268;28;20051;-79
2024/03/30 13:38:19;;;;;;;21.58;4.55;;;;;;;;;;5058364;28;20025;-80
2024/03/30 13:40:45;;;;;;;15.93;4.35;;;;;;;;;;5065714;28;20029;-78
2024/03/30 13:43:11;;;;;;;15.70;3.72;;;;;;;;;;5058219;28;20024;-78
2024/03/30 13:45:37;;;;;;;16.70;4.13;;;;;;;;;;5057340;28;20021;-78
2024/03/30 13:48:04;;;;;;;23.02;5.28;;;;;;;;;;5060270;28;20077;-79
2024/03/30 13:50:31;;;;;;;15.02;4.15;;;;;;;;;;5062894;28;20036;-79
2024/03/30 13:52:57;;;;;;;14.88;3.60;;;;;;;;;;5061356;28;20029;-78
2024/03/30 13:55:23;;;;;;;14.25;3.38;;;;;;;;;;5065730;28;20021;-78
2024/03/30 13:57:51;;;;;;;22.17;4.85;;;;;;;;;;5058215;28;20467;-80
2024/03/30 14:00:18;;;;;;;25.05;5.22;;;;;;;;;;5056521;28;20559;-80
2024/03/30 14:02:44;;;;;;;19.95;5.32;;;;;;;;;;5057577;28;20028;-79
2024/03/30 14:05:10;;;;;;;19.65;4.13;;;;;;;;;;5056629;28;20099;-79
2024/03/30 14:07:36;;;;;;;23.92;5.65;;;;;;;;;;5057379;28;20076;-79
2024/03/30 14:10:06;;;;;;;19.23;4.88;;;;;;;;;;5065932;28;20031;-80
2024/03/30 14:12:32;;;;;;;22.55;5.28;;;;;;;;;;5070347;28;20511;-79
2024/03/30 14:15:01;;;;;;;19.77;4.68;;;;;;;;;;5054303;28;20464;-79
2024/03/30 14:17:32;;;;;;;21.83;4.88;;;;;;;;;;5057736;28;20479;-79
2024/03/30 14:20:01;;;;;;;24.63;4.20;;;;;;;;;;5056922;28;20090;-79
2024/03/30 14:22:27;;;;;;;17.13;4.60;;;;;;;;;;5057999;28;20425;-78
2024/03/30 14:24:53;;;;;;;22.85;4.82;;;;;;;;;;5071776;28;20016;-81
2024/03/30 14:27:20;;;;;;;15.82;4.07;;;;;;;;;;5078491;28;20070;-78
2024/03/30 14:29:46;;;;;;;22.77;5.78;;;;;;;;;;5071551;28;20043;-79
2024/03/30 14:32:13;;;;;;;19.90;4.28;;;;;;;;;;5056984;28;20112;-78
2024/03/30 14:34:39;;;;;;;21.92;4.38;;;;;;;;;;5062584;28;20183;-80
2024/03/30 14:37:11;;;;;;;27.98;5.07;;;;;;;;;;5070473;28;20021;-79
2024/03/30 14:39:37;;;;;;;22.58;5.00;;;;;;;;;;5050466;28;20025;-78
2024/03/30 14:42:03;;;;;;;22.05;4.20;;;;;;;;;;5048886;28;20123;-79